map of HSK home
HSK - Airport
Location
City:  Huesca, Aragón, Spain
Name:Huesca-Pirineos
Old (Alt.):Guadasespe
ICAO:LEHC
IATA:HSK

Details
Type:Airport (Aerodrome, Airfield)
Latitude:42°04'51"N (42.080927)
Longitude:0°19'24"W (-0.323468)
Elevation:1769 ft (539 m)
Variation:0.30°E (WMM2015 magnetic declination)
0.12° annual change
Runways:2
Longest:6890 × 148 ft (2100 × 45 m), paved

Weather
METAR:LEHC 180530Z AUTO 12003KT 070V160 0150 0050SE R30L/0300N R12R/0125N FZFG VV001 M03/M03 Q1017
TAF:LEHC 180200Z 1803/1903 VRB04KT 9999 BKN014 TX05/1813Z TNM02/1806Z
TEMPO 1803/1812 2000 BR OVC004 PROB40
TEMPO 1803/1811 0200 FZFG VV001
TEMPO 1814/1818 27009KT
TEMPO 1818/1903 0200 FG VV001

Related Locations
Nearby:
Farthest:NZFT: 12240 mi / 19698 km
Flat Point, WGN, NZ

Find:

   beyond  
but within

Other Information
Maps:
NOTAMs:
Links:
Sources:

  
  • flag of Spain
  • flag of Aragón
  

Sectional Chart

Flight Planning
at skyvector.com

Satellite Image

Google Maps Satellite view

 

Copyright © 2004-2019 Karl L. Swartz. All rights reserved.
The Great Circle Mapper name and logo are trademarks of the Great Circle Mapper.
All other trademarks mentioned herein belong to their respective owners.
Please see credits for attibutions and further copyright information.

  Follow gcmap on Facebook Follow gcmap on Twitter Follow gcmap on Google+ GCmap on LinkedIn

hCard Microformat

Geo Microformat